Time;durP1;ratioP1;P1;durP2;ratioP2;P2;SDS_P1;SDS_P2;PMS_P1;PMS_P2;Temp;Humidity;BMP_temperature;BMP_pressure;BME280_temperature;BME280_humidity;BME280_pressure;Samples;Min_cycle;Max_cycle;Signal;HPM_P1;HPM_P2
2022/04/06 00:01:40;;;;;;;24.90;7.10;;;9.40;99.90;;;;;;5063309;28;36568;-56
2022/04/06 00:04:07;;;;;;;15.52;7.05;;;9.40;99.90;;;;;;5063142;28;36456;-56
2022/04/06 00:06:35;;;;;;;18.15;7.65;;;9.40;99.90;;;;;;5062995;28;38067;-56
2022/04/06 00:09:05;;;;;;;20.38;8.10;;;9.30;99.90;;;;;;5062922;28;37583;-57
2022/04/06 00:11:33;;;;;;;23.15;8.30;;;9.30;99.90;;;;;;5062392;28;36130;-58
2022/04/06 00:14:02;;;;;;;19.38;8.95;;;9.30;99.90;;;;;;5062285;28;37440;-57
2022/04/06 00:16:29;;;;;;;16.95;8.25;;;9.30;99.90;;;;;;5063411;28;38440;-57
2022/04/06 00:18:57;;;;;;;19.45;8.02;;;9.20;99.90;;;;;;5064438;28;37391;-53
2022/04/06 00:21:27;;;;;;;19.48;8.88;;;9.30;99.90;;;;;;5061803;28;35741;-53
2022/04/06 00:23:56;;;;;;;21.98;10.10;;;9.30;99.90;;;;;;5061304;28;38505;-59
2022/04/06 00:26:25;;;;;;;19.50;8.95;;;9.30;99.90;;;;;;5062472;28;38373;-58
2022/04/06 00:28:52;;;;;;;21.83;8.63;;;9.30;99.90;;;;;;5062177;28;36563;-57
2022/04/06 00:31:20;;;;;;;23.40;9.55;;;9.20;99.90;;;;;;5063342;28;36888;-58
2022/04/06 00:33:49;;;;;;;24.05;9.85;;;9.30;99.90;;;;;;5061621;28;38408;-57
2022/04/06 00:36:18;;;;;;;25.40;9.73;;;9.30;99.90;;;;;;5062199;28;37960;-57
2022/04/06 00:38:48;;;;;;;23.20;9.63;;;9.30;99.90;;;;;;5061209;28;37570;-57
2022/04/06 00:41:18;;;;;;;33.97;10.30;;;9.30;99.90;;;;;;5062117;28;36491;-57
2022/04/06 00:44:15;;;;;;;30.52;9.93;;;9.30;99.90;;;;;;5063065;28;41926;-52
2022/04/06 00:46:43;;;;;;;27.83;10.40;;;9.20;99.90;;;;;;5061926;28;37977;-57
2022/04/06 00:49:14;;;;;;;23.38;10.40;;;9.20;99.90;;;;;;5063109;28;36325;-52
2022/04/06 00:51:45;;;;;;;26.42;10.02;;;9.20;99.90;;;;;;5061560;28;36084;-49
2022/04/06 00:54:15;;;;;;;25.50;9.70;;;9.20;99.90;;;;;;5061078;28;38034;-51
2022/04/06 00:56:44;;;;;;;27.50;10.98;;;9.20;99.90;;;;;;5062048;28;36537;-55
2022/04/06 00:59:13;;;;;;;33.80;11.02;;;9.20;99.90;;;;;;5061107;28;36251;-55
2022/04/06 01:01:40;;;;;;;25.95;10.40;;;9.30;99.90;;;;;;5061704;28;36415;-55
2022/04/06 01:04:08;;;;;;;27.10;11.63;;;9.30;99.90;;;;;;5061257;28;38927;-55
2022/04/06 01:06:38;;;;;;;27.10;11.35;;;9.30;99.90;;;;;;5062907;28;37101;-52
2022/04/06 01:09:09;;;;;;;26.90;10.82;;;9.30;99.90;;;;;;5062167;28;37905;-51
2022/04/06 01:11:36;;;;;;;27.35;10.38;;;9.30;99.90;;;;;;5061476;28;37667;-51
2022/04/06 01:14:06;;;;;;;21.65;9.63;;;9.30;99.90;;;;;;5064442;28;38475;-51
2022/04/06 01:16:34;;;;;;;30.13;9.77;;;9.30;99.90;;;;;;5062332;28;36535;-51
2022/04/06 01:19:02;;;;;;;26.45;9.60;;;9.30;99.90;;;;;;5061694;28;37863;-51
2022/04/06 01:21:29;;;;;;;21.40;9.38;;;9.30;99.90;;;;;;5061184;28;36590;-50
2022/04/06 01:23:58;;;;;;;26.48;9.43;;;9.30;99.90;;;;;;5062356;28;38665;-51
2022/04/06 01:26:26;;;;;;;27.27;10.02;;;9.40;99.90;;;;;;5062401;28;37810;-51
2022/04/06 01:28:54;;;;;;;23.90;8.75;;;9.40;99.90;;;;;;5062105;28;37619;-50
2022/04/06 01:31:21;;;;;;;21.73;8.95;;;9.40;99.90;;;;;;5061199;28;35504;-50
2022/04/06 01:33:48;;;;;;;21.38;7.88;;;9.40;99.90;;;;;;5060988;28;37691;-51
2022/04/06 01:36:16;;;;;;;17.58;8.32;;;9.40;99.90;;;;;;5061849;28;38415;-51
2022/04/06 01:38:43;;;;;;;27.83;8.80;;;9.50;99.90;;;;;;5061374;28;37123;-51
2022/04/06 01:41:12;;;;;;;24.60;8.27;;;9.40;99.90;;;;;;5059724;28;37419;-50
2022/04/06 01:43:39;;;;;;;22.40;6.88;;;9.50;99.90;;;;;;5061247;28;38908;-48
2022/04/06 01:46:07;;;;;;;18.38;6.90;;;9.50;99.90;;;;;;5062458;28;37702;-51
2022/04/06 01:52:11;;;;;;;21.60;8.02;;;9.50;99.90;;;;;;5064616;28;36255;-51
2022/04/06 01:54:06;;;;;;;17.17;6.38;;;9.50;99.90;;;;;;5065705;28;39037;-50
2022/04/06 01:56:35;;;;;;;14.43;6.38;;;9.50;99.90;;;;;;5064890;28;37963;-51
2022/04/06 01:59:02;;;;;;;17.25;6.20;;;9.50;99.90;;;;;;5064142;28;37896;-52
2022/04/06 02:01:30;;;;;;;19.13;6.55;;;9.50;99.90;;;;;;5063539;28;36351;-52
2022/04/06 02:03:59;;;;;;;22.10;6.35;;;9.50;99.90;;;;;;5063027;28;42430;-52
2022/04/06 02:06:27;;;;;;;18.27;6.68;;;9.50;99.90;;;;;;5064417;28;37951;-51
2022/04/06 02:08:56;;;;;;;19.83;5.72;;;9.50;99.90;;;;;;5064291;28;37561;-51
2022/04/06 02:11:23;;;;;;;21.77;6.40;;;9.50;99.90;;;;;;5064366;28;36554;-51
2022/04/06 02:13:52;;;;;;;16.52;5.78;;;9.50;99.90;;;;;;5063624;28;37598;-51
2022/04/06 02:16:19;;;;;;;19.33;6.90;;;9.60;99.90;;;;;;5063675;28;37705;-48
2022/04/06 02:18:47;;;;;;;12.88;5.57;;;9.50;99.90;;;;;;5064002;28;37560;-55
2022/04/06 02:21:14;;;;;;;15.30;6.00;;;9.50;99.90;;;;;;5063092;28;37430;-55
2022/04/06 02:23:41;;;;;;;19.77;5.65;;;9.50;99.90;;;;;;5064431;28;38173;-56
2022/04/06 02:26:09;;;;;;;17.05;5.28;;;9.50;99.90;;;;;;5064235;28;39017;-56
2022/04/06 02:28:36;;;;;;;13.25;5.15;;;9.50;99.90;;;;;;5063869;28;37194;-55
2022/04/06 02:31:05;;;;;;;19.85;5.38;;;9.50;99.90;;;;;;5063467;28;36543;-56
2022/04/06 02:33:32;;;;;;;11.80;4.47;;;9.60;99.90;;;;;;5062940;28;37624;-57
2022/04/06 02:36:03;;;;;;;11.70;5.15;;;9.50;99.90;;;;;;5065425;28;20114;-56
2022/04/06 02:38:31;;;;;;;20.63;5.47;;;9.50;99.90;;;;;;5064173;28;38871;-56
2022/04/06 02:40:58;;;;;;;15.60;4.47;;;9.50;99.90;;;;;;5063295;28;38948;-57
2022/04/06 02:43:26;;;;;;;22.83;4.63;;;9.50;99.90;;;;;;5064132;28;38252;-57
2022/04/06 02:45:53;;;;;;;14.10;5.13;;;9.50;99.90;;;;;;5064519;28;38631;-57
2022/04/06 02:48:22;;;;;;;9.13;3.55;;;9.50;99.90;;;;;;5064528;28;37268;-56
2022/04/06 02:50:50;;;;;;;16.75;4.05;;;9.50;99.90;;;;;;5063148;28;37201;-57
2022/04/06 02:53:17;;;;;;;16.85;4.47;;;9.50;99.90;;;;;;5061939;28;36736;-57
2022/04/06 02:55:44;;;;;;;13.88;3.75;;;9.50;99.90;;;;;;5062988;28;38529;-57
2022/04/06 02:58:12;;;;;;;13.23;2.78;;;9.50;99.90;;;;;;5063758;28;38210;-57
2022/04/06 03:00:40;;;;;;;11.85;3.00;;;9.40;99.90;;;;;;5060105;28;36668;-57
2022/04/06 03:03:08;;;;;;;12.48;3.28;;;9.50;99.90;;;;;;5062633;28;38027;-57
2022/04/06 03:05:39;;;;;;;10.27;3.30;;;9.40;99.90;;;;;;5064761;28;37285;-57
2022/04/06 03:08:07;;;;;;;10.40;2.40;;;9.50;99.90;;;;;;5063953;28;36969;-56
2022/04/06 03:10:35;;;;;;;9.63;2.90;;;9.40;99.90;;;;;;5064256;28;36731;-56
2022/04/06 03:13:02;;;;;;;8.05;2.72;;;9.40;99.90;;;;;;5063933;28;37432;-57
2022/04/06 03:15:30;;;;;;;10.82;3.17;;;9.40;99.90;;;;;;5064335;28;37913;-57
2022/04/06 03:17:57;;;;;;;10.60;3.92;;;9.40;99.90;;;;;;5064557;28;38705;-56
2022/04/06 03:20:24;;;;;;;9.60;2.33;;;9.50;99.90;;;;;;5061681;28;37008;-56
2022/04/06 03:22:53;;;;;;;9.30;2.63;;;9.40;99.90;;;;;;5063666;28;38462;-56
2022/04/06 03:25:20;;;;;;;10.55;2.60;;;9.40;99.90;;;;;;5062725;28;37549;-56
2022/04/06 03:27:50;;;;;;;7.07;1.95;;;9.40;99.90;;;;;;5063451;28;38342;-57
2022/04/06 03:30:19;;;;;;;12.50;2.70;;;9.40;99.90;;;;;;5063666;28;35481;-56
2022/04/06 03:32:47;;;;;;;5.45;2.20;;;9.40;99.90;;;;;;5063332;28;38418;-56
2022/04/06 03:35:14;;;;;;;9.02;3.38;;;9.40;99.90;;;;;;5063909;28;39093;-57
2022/04/06 03:37:42;;;;;;;10.35;2.22;;;9.40;99.90;;;;;;5063734;28;37481;-53
2022/04/06 03:40:14;;;;;;;9.65;2.65;;;9.40;99.90;;;;;;5061159;28;36692;-52
2022/04/06 03:42:43;;;;;;;6.57;2.40;;;9.40;99.90;;;;;;5063410;28;37723;-53
2022/04/06 03:45:13;;;;;;;9.15;2.22;;;9.40;99.90;;;;;;5063514;28;37777;-52
2022/04/06 03:47:43;;;;;;;9.00;2.45;;;9.40;99.90;;;;;;5063026;28;38340;-51
2022/04/06 03:50:11;;;;;;;13.25;2.90;;;9.40;99.90;;;;;;5064250;28;36617;-51
2022/04/06 03:52:39;;;;;;;12.68;2.85;;;9.40;99.90;;;;;;5061789;28;37647;-51
2022/04/06 03:55:08;;;;;;;10.40;2.97;;;9.40;99.90;;;;;;5062767;28;38706;-53
2022/04/06 03:57:38;;;;;;;9.75;3.53;;;9.40;99.90;;;;;;5063074;28;39767;-54
2022/04/06 04:00:07;;;;;;;15.00;4.63;;;9.40;99.90;;;;;;5062001;28;36110;-53
2022/04/06 04:02:35;;;;;;;13.65;3.47;;;9.40;99.90;;;;;;5062378;28;38061;-51
2022/04/06 04:05:03;;;;;;;13.77;4.40;;;9.40;99.90;;;;;;5063416;28;40410;-53
2022/04/06 04:07:31;;;;;;;18.63;5.47;;;9.30;99.90;;;;;;5061504;28;37000;-52
2022/04/06 04:09:59;;;;;;;15.93;4.40;;;9.30;99.90;;;;;;5061915;28;36588;-53
2022/04/06 04:12:26;;;;;;;17.80;4.63;;;9.30;99.90;;;;;;5063410;28;37966;-51
2022/04/06 04:14:55;;;;;;;14.32;5.00;;;9.30;99.90;;;;;;5063072;28;36690;-51
2022/04/06 04:17:22;;;;;;;11.32;4.80;;;9.30;99.90;;;;;;5063235;28;38486;-52
2022/04/06 04:19:50;;;;;;;17.85;4.85;;;9.30;99.90;;;;;;5062451;28;36908;-51
2022/04/06 04:22:17;;;;;;;16.20;4.53;;;9.20;99.90;;;;;;5062909;28;37480;-52
2022/04/06 04:24:44;;;;;;;20.05;6.50;;;9.20;99.90;;;;;;5063435;28;36646;-53
2022/04/06 04:27:12;;;;;;;16.38;6.28;;;9.20;99.90;;;;;;5062608;28;37462;-54
2022/04/06 04:29:39;;;;;;;15.70;6.43;;;9.20;99.90;;;;;;5062885;28;36653;-57
2022/04/06 04:32:10;;;;;;;15.80;5.82;;;9.20;99.90;;;;;;5062562;28;37322;-57
2022/04/06 04:34:37;;;;;;;18.15;6.20;;;9.20;99.90;;;;;;5062134;28;38904;-56
2022/04/06 04:37:07;;;;;;;17.48;5.35;;;9.20;99.90;;;;;;5061816;28;37497;-56
2022/04/06 04:39:35;;;;;;;19.35;6.13;;;9.20;99.90;;;;;;5061895;28;36395;-57
2022/04/06 04:42:03;;;;;;;20.95;6.05;;;9.20;99.90;;;;;;5061453;28;38251;-57
2022/04/06 04:44:30;;;;;;;17.80;6.25;;;9.20;99.90;;;;;;5061919;28;37707;-57
2022/04/06 04:46:59;;;;;;;18.92;6.40;;;9.20;99.90;;;;;;5061586;28;36376;-60
2022/04/06 04:49:29;;;;;;;19.05;5.53;;;9.20;99.90;;;;;;5061855;28;35318;-56
2022/04/06 04:51:57;;;;;;;21.80;6.93;;;9.20;99.90;;;;;;5061543;28;38651;-57
2022/04/06 04:54:24;;;;;;;14.32;6.50;;;9.20;99.90;;;;;;5060761;28;38694;-56
2022/04/06 04:56:52;;;;;;;22.25;7.45;;;9.20;99.90;;;;;;5062091;28;39141;-56
2022/04/06 04:59:20;;;;;;;16.92;6.32;;;9.20;99.90;;;;;;5059244;28;36341;-56
2022/04/06 05:01:47;;;;;;;25.48;6.10;;;9.20;99.90;;;;;;5059872;28;36999;-57
2022/04/06 05:04:17;;;;;;;13.57;5.50;;;9.20;99.90;;;;;;5059487;28;37594;-57
2022/04/06 05:06:46;;;;;;;17.02;6.55;;;9.20;99.90;;;;;;5060751;28;38563;-57
2022/04/06 05:09:14;;;;;;;13.35;5.45;;;9.20;99.90;;;;;;5060576;28;38076;-56
2022/04/06 05:11:41;;;;;;;16.05;5.55;;;9.20;99.90;;;;;;5058827;28;37421;-57
2022/04/06 05:14:09;;;;;;;17.75;5.68;;;9.20;99.90;;;;;;5058810;28;37705;-53
2022/04/06 05:16:37;;;;;;;14.57;5.43;;;9.20;99.90;;;;;;5059147;28;38739;-52
2022/04/06 05:19:04;;;;;;;17.88;5.80;;;9.20;99.90;;;;;;5058864;28;36790;-50
2022/04/06 05:21:32;;;;;;;25.45;6.13;;;9.10;99.90;;;;;;5062912;28;38035;-52
2022/04/06 05:24:02;;;;;;;17.45;5.57;;;9.10;99.90;;;;;;5064345;28;36818;-57
2022/04/06 05:26:32;;;;;;;14.52;5.25;;;9.10;99.90;;;;;;5065065;28;38435;-52
2022/04/06 05:29:01;;;;;;;20.95;5.53;;;9.10;99.90;;;;;;5067234;28;36885;-50
2022/04/06 05:31:32;;;;;;;15.63;4.85;;;9.10;99.90;;;;;;5065741;28;37689;-51
2022/04/06 05:33:59;;;;;;;18.98;5.35;;;9.20;99.90;;;;;;5065499;28;36615;-52
2022/04/06 05:36:28;;;;;;;16.65;5.28;;;9.20;99.90;;;;;;5065510;28;38824;-50
2022/04/06 05:38:56;;;;;;;18.25;5.47;;;9.10;99.90;;;;;;5065827;28;35325;-52
2022/04/06 05:41:25;;;;;;;20.67;6.03;;;9.10;99.90;;;;;;5066604;28;39789;-52
2022/04/06 05:43:53;;;;;;;18.88;5.82;;;9.10;99.90;;;;;;5065050;28;36717;-52
2022/04/06 05:46:22;;;;;;;15.27;4.80;;;9.10;99.90;;;;;;5066097;28;37403;-53
2022/04/06 05:48:53;;;;;;;18.58;5.00;;;9.10;99.90;;;;;;5066090;28;38421;-52
2022/04/06 05:51:20;;;;;;;15.95;5.05;;;9.10;99.90;;;;;;5065853;28;37411;-51
2022/04/06 05:53:51;;;;;;;16.10;5.40;;;9.00;99.90;;;;;;5064866;28;37893;-50
2022/04/06 05:56:18;;;;;;;19.45;5.40;;;9.00;99.90;;;;;;5063336;28;37260;-52
2022/04/06 05:58:49;;;;;;;17.85;6.13;;;9.00;99.90;;;;;;5063593;28;36413;-52
2022/04/06 06:01:17;;;;;;;21.35;6.07;;;9.00;99.90;;;;;;5064430;28;37290;-53
2022/04/06 06:03:44;;;;;;;17.23;5.40;;;9.00;99.90;;;;;;5064539;28;39371;-52
2022/04/06 06:06:11;;;;;;;19.58;5.60;;;9.00;99.90;;;;;;5065662;28;36908;-52
2022/04/06 06:08:41;;;;;;;14.07;5.43;;;9.00;99.90;;;;;;5067542;28;37579;-54
2022/04/06 06:11:08;;;;;;;14.13;5.75;;;9.00;99.90;;;;;;5066035;28;36923;-53
2022/04/06 06:13:36;;;;;;;14.45;5.50;;;9.00;99.90;;;;;;5065720;28;38096;-52
2022/04/06 06:16:06;;;;;;;13.23;5.32;;;9.00;99.90;;;;;;5066361;28;36320;-53
2022/04/06 06:18:34;;;;;;;13.95;5.40;;;9.10;99.90;;;;;;5065766;28;38248;-50
2022/04/06 06:21:04;;;;;;;14.45;4.95;;;9.10;99.90;;;;;;5065697;28;37720;-51
2022/04/06 06:23:31;;;;;;;17.73;5.40;;;9.10;99.90;;;;;;5065330;28;39668;-52
2022/04/06 06:26:02;;;;;;;16.80;4.75;;;9.00;99.90;;;;;;5066538;28;37312;-52
2022/04/06 06:28:30;;;;;;;14.88;4.68;;;9.20;99.90;;;;;;5067156;28;36502;-50
2022/04/06 06:30:57;;;;;;;12.88;4.30;;;9.10;99.90;;;;;;5066203;28;36254;-52
2022/04/06 06:33:26;;;;;;;15.45;4.00;;;9.00;99.90;;;;;;5064485;28;39195;-51
2022/04/06 06:35:56;;;;;;;17.10;4.75;;;9.10;99.90;;;;;;5064954;28;37489;-52
2022/04/06 06:38:24;;;;;;;14.70;4.63;;;9.10;99.90;;;;;;5066142;28;37781;-52
2022/04/06 06:40:54;;;;;;;13.15;4.40;;;9.10;99.90;;;;;;5066875;28;36408;-50
2022/04/06 06:43:22;;;;;;;15.75;4.25;;;9.10;99.90;;;;;;5066591;28;37697;-52
2022/04/06 06:45:52;;;;;;;15.82;3.80;;;9.10;99.90;;;;;;5066962;28;37504;-51
2022/04/06 06:48:19;;;;;;;15.15;3.88;;;9.10;99.90;;;;;;5067230;28;36467;-50
2022/04/06 06:50:48;;;;;;;11.57;3.92;;;9.10;99.90;;;;;;5066659;28;39085;-51
2022/04/06 06:53:15;;;;;;;13.57;4.15;;;9.00;99.90;;;;;;5066051;28;37689;-53
2022/04/06 06:55:44;;;;;;;13.30;4.13;;;9.10;99.90;;;;;;5066179;28;37267;-52
2022/04/06 06:58:12;;;;;;;12.60;4.32;;;9.00;99.90;;;;;;5067191;28;36717;-50
2022/04/06 07:00:40;;;;;;;9.98;3.53;;;9.00;99.90;;;;;;5066774;28;36382;-52
2022/04/06 07:03:07;;;;;;;14.48;4.15;;;9.00;99.90;;;;;;5065632;28;41471;-53
2022/04/06 07:05:35;;;;;;;13.15;3.45;;;9.00;99.90;;;;;;5065834;28;37939;-49
2022/04/06 07:08:07;;;;;;;11.20;2.90;;;9.00;99.90;;;;;;5066524;28;38399;-49
2022/04/06 07:10:38;;;;;;;12.68;3.28;;;9.00;99.90;;;;;;5066134;28;37278;-53
2022/04/06 07:13:08;;;;;;;9.88;3.25;;;9.00;99.90;;;;;;5066375;28;37596;-52
2022/04/06 07:15:35;;;;;;;17.73;3.75;;;9.00;99.90;;;;;;5066842;28;38177;-51
2022/04/06 07:18:05;;;;;;;12.05;3.00;;;9.00;99.90;;;;;;5065287;28;36648;-52
2022/04/06 07:20:36;;;;;;;15.90;3.88;;;9.00;99.90;;;;;;5065754;28;35931;-51
2022/04/06 07:23:05;;;;;;;9.18;2.78;;;9.00;99.90;;;;;;5065876;28;38843;-51
2022/04/06 07:25:33;;;;;;;11.43;3.17;;;9.00;99.90;;;;;;5066367;28;36919;-52
2022/04/06 07:28:00;;;;;;;9.68;2.53;;;9.00;99.90;;;;;;5066427;28;36657;-50
2022/04/06 07:30:28;;;;;;;12.77;3.30;;;9.00;99.90;;;;;;5064577;28;36503;-52
2022/04/06 07:32:55;;;;;;;16.05;3.63;;;9.00;99.90;;;;;;5066005;28;37342;-50
2022/04/06 07:35:23;;;;;;;16.30;4.03;;;9.00;99.90;;;;;;5066380;28;37316;-52
2022/04/06 07:37:52;;;;;;;11.10;3.30;;;9.00;99.90;;;;;;5064976;28;35248;-51
2022/04/06 07:40:25;;;;;;;10.82;2.58;;;9.00;99.90;;;;;;5065289;28;37890;-53
2022/04/06 07:42:53;;;;;;;11.23;2.80;;;9.00;99.90;;;;;;5064434;28;37096;-49
2022/04/06 07:45:24;;;;;;;9.52;2.85;;;9.00;99.90;;;;;;5064964;28;38535;-51
2022/04/06 07:47:53;;;;;;;11.85;2.90;;;9.00;99.90;;;;;;5065827;28;37473;-52
2022/04/06 07:50:21;;;;;;;9.82;2.42;;;9.00;99.90;;;;;;5065930;28;38334;-52
2022/04/06 07:52:49;;;;;;;14.63;3.10;;;9.00;99.90;;;;;;5064367;28;38258;-48
2022/04/06 07:55:17;;;;;;;14.80;3.33;;;9.00;99.90;;;;;;5065365;28;39515;-52
2022/04/06 07:57:48;;;;;;;15.30;3.70;;;9.00;99.90;;;;;;5065604;28;35292;-56
2022/04/06 08:00:17;;;;;;;13.63;2.90;;;9.10;99.90;;;;;;5064591;28;38435;-56
2022/04/06 08:02:45;;;;;;;16.77;3.10;;;9.10;99.90;;;;;;5064607;28;36418;-56
2022/04/06 08:05:12;;;;;;;15.18;3.45;;;9.10;99.90;;;;;;5065386;28;36732;-56
2022/04/06 08:07:43;;;;;;;14.57;3.75;;;9.10;99.90;;;;;;5064819;28;36855;-56
2022/04/06 08:10:12;;;;;;;15.40;3.05;;;9.10;99.90;;;;;;5065377;28;38355;-52
2022/04/06 08:12:40;;;;;;;17.25;2.90;;;9.10;99.90;;;;;;5064839;28;37861;-51
2022/04/06 08:15:12;;;;;;;14.73;3.97;;;9.10;99.90;;;;;;5063997;28;38257;-50
2022/04/06 08:17:41;;;;;;;13.07;3.30;;;9.10;99.90;;;;;;5065086;28;36166;-48
2022/04/06 08:20:12;;;;;;;14.38;2.95;;;9.10;99.90;;;;;;5064723;28;38500;-49
2022/04/06 08:22:40;;;;;;;14.48;3.47;;;9.10;99.90;;;;;;5064646;28;37853;-51
2022/04/06 08:25:08;;;;;;;11.68;3.58;;;9.10;99.90;;;;;;5064055;28;38633;-52
2022/04/06 08:27:40;;;;;;;12.57;3.72;;;9.10;99.90;;;;;;5063989;28;36450;-52
2022/04/06 08:30:11;;;;;;;14.88;3.22;;;9.10;99.90;;;;;;5063703;28;38886;-51
2022/04/06 08:32:38;;;;;;;10.93;3.10;;;9.20;99.90;;;;;;5063494;28;39437;-52
2022/04/06 08:35:08;;;;;;;15.95;3.35;;;9.10;99.90;;;;;;5064405;28;38167;-53
2022/04/06 08:37:36;;;;;;;15.00;3.13;;;9.10;99.90;;;;;;5064075;28;36536;-52
2022/04/06 08:40:07;;;;;;;15.02;3.15;;;9.10;99.90;;;;;;5064509;28;37618;-47
2022/04/06 08:42:35;;;;;;;13.45;3.67;;;9.10;99.90;;;;;;5064826;28;37741;-48
2022/04/06 08:45:07;;;;;;;9.88;3.03;;;9.10;99.90;;;;;;5064716;28;38598;-50
2022/04/06 08:47:37;;;;;;;15.98;3.42;;;9.10;99.90;;;;;;5064794;28;35905;-53
2022/04/06 08:50:07;;;;;;;10.93;2.80;;;9.20;99.90;;;;;;5064954;28;37562;-53
2022/04/06 08:52:36;;;;;;;17.80;3.70;;;9.20;99.90;;;;;;5065080;28;38615;-53
2022/04/06 08:55:03;;;;;;;16.35;3.13;;;9.30;99.90;;;;;;5063878;28;38094;-52
2022/04/06 08:57:32;;;;;;;13.45;2.95;;;9.30;99.90;;;;;;5064829;28;36532;-53
2022/04/06 09:00:00;;;;;;;14.32;3.92;;;9.30;99.90;;;;;;5064772;28;38558;-54
2022/04/06 09:02:27;;;;;;;18.50;3.28;;;9.40;99.90;;;;;;5062980;28;38412;-52
2022/04/06 09:04:57;;;;;;;11.05;2.90;;;9.40;99.90;;;;;;5063790;28;37242;-53
2022/04/06 09:07:25;;;;;;;11.65;3.05;;;9.40;99.90;;;;;;5064186;28;37311;-51
2022/04/06 09:09:54;;;;;;;11.60;3.05;;;9.40;99.90;;;;;;5064318;28;38434;-53
2022/04/06 09:12:23;;;;;;;11.63;3.10;;;9.50;99.90;;;;;;5063551;28;37693;-53
2022/04/06 09:15:05;;;;;;;17.83;3.67;;;9.50;99.90;;;;;;5063568;28;38194;-53
2022/04/06 09:17:36;;;;;;;12.13;3.47;;;9.60;99.90;;;;;;5062326;28;35298;-54
2022/04/06 09:20:12;;;;;;;10.43;2.63;;;9.60;99.90;;;;;;5062903;28;36596;-53
2022/04/06 09:22:40;;;;;;;10.85;2.78;;;9.80;99.90;;;;;;5054659;28;36416;-58
2022/04/06 09:25:09;;;;;;;11.25;3.13;;;9.90;99.90;;;;;;5060888;28;38472;-53
2022/04/06 09:27:40;;;;;;;10.57;3.55;;;10.00;99.90;;;;;;5062245;28;36235;-54
2022/04/06 09:30:09;;;;;;;10.55;2.72;;;10.00;99.90;;;;;;5062496;28;36326;-54
2022/04/06 09:32:37;;;;;;;10.20;3.10;;;10.10;99.90;;;;;;5061351;28;39042;-54
2022/04/06 09:35:25;;;;;;;10.77;2.92;;;10.10;99.90;;;;;;5061668;28;37555;-52
2022/04/06 09:38:12;;;;;;;15.10;3.80;;;10.20;99.90;;;;;;5063146;28;37926;-54
2022/04/06 09:40:42;;;;;;;20.42;3.55;;;10.20;99.90;;;;;;5061652;28;38542;-54
2022/04/06 09:43:23;;;;;;;12.15;3.33;;;10.30;99.90;;;;;;5063355;28;38809;-53
2022/04/06 09:48:53;;;;;;;16.08;3.25;;;10.40;99.90;;;;;;5064733;28;37355;-54
2022/04/06 09:51:22;;;;;;;13.52;3.55;;;10.50;99.90;;;;;;5063926;28;37321;-55
2022/04/06 09:53:51;;;;;;;12.43;2.90;;;10.50;99.90;;;;;;5063952;28;39893;-53
2022/04/06 09:56:18;;;;;;;15.60;4.25;;;10.50;99.90;;;;;;5063319;28;37878;-54
2022/04/06 09:58:46;;;;;;;20.92;3.97;;;10.50;99.90;;;;;;5063643;28;37534;-54
2022/04/06 10:01:15;;;;;;;13.02;3.15;;;10.40;99.90;;;;;;5059438;28;36599;-55
2022/04/06 10:03:52;;;;;;;15.73;3.70;;;10.40;99.90;;;;;;5062892;28;38669;-55
2022/04/06 10:06:20;;;;;;;16.08;3.83;;;10.50;99.90;;;;;;5063143;28;38566;-55
2022/04/06 10:08:49;;;;;;;13.80;4.45;;;10.40;99.90;;;;;;5067675;28;38695;-54
2022/04/06 10:11:18;;;;;;;20.05;4.60;;;10.40;99.90;;;;;;5066734;28;37402;-49
2022/04/06 10:13:46;;;;;;;14.45;4.28;;;10.50;99.90;;;;;;5066184;28;37789;-50
2022/04/06 10:16:13;;;;;;;16.73;3.17;;;10.40;99.90;;;;;;5066394;28;35267;-55
2022/04/06 10:18:43;;;;;;;13.55;3.17;;;10.40;99.90;;;;;;5066959;28;36521;-49
2022/04/06 10:21:14;;;;;;;17.20;4.03;;;10.40;99.90;;;;;;5066281;28;37574;-50
2022/04/06 10:23:54;;;;;;;19.27;3.58;;;10.40;99.90;;;;;;5066028;28;40652;-51
2022/04/06 10:26:45;;;;;;;21.48;3.67;;;10.40;99.90;;;;;;5066399;28;39824;-48
2022/04/06 10:29:13;;;;;;;10.05;2.65;;;10.40;99.90;;;;;;5066275;28;35445;-49
2022/04/06 10:31:41;;;;;;;15.30;4.57;;;10.50;99.90;;;;;;5067152;28;36602;-51
2022/04/06 10:34:22;;;;;;;17.55;4.13;;;10.40;99.90;;;;;;5065765;28;37675;-49
2022/04/06 10:37:12;;;;;;;14.27;3.10;;;10.40;99.90;;;;;;5067662;28;35971;-54
2022/04/06 10:40:01;;;;;;;20.02;4.13;;;10.40;99.90;;;;;;5066617;28;36335;-54
2022/04/06 10:42:33;;;;;;;15.55;3.47;;;10.40;99.90;;;;;;5066526;28;38068;-54
2022/04/06 10:45:02;;;;;;;20.63;4.90;;;10.40;99.90;;;;;;5066542;28;38259;-55
2022/04/06 10:47:31;;;;;;;17.92;3.95;;;10.40;99.90;;;;;;5066597;28;36184;-54
2022/04/06 10:50:26;;;;;;;15.55;4.45;;;10.40;99.90;;;;;;5066746;28;36563;-54
2022/04/06 10:53:32;;;;;;;16.98;3.92;;;10.40;99.90;;;;;;5041678;28;37916;-48
2022/04/06 10:56:06;;;;;;;15.73;4.65;;;10.50;99.90;;;;;;5065817;28;36587;-54
2022/04/06 10:59:06;;;;;;;15.68;3.92;;;10.50;99.90;;;;;;5066583;28;37328;-47
2022/04/06 11:01:38;;;;;;;17.15;4.43;;;10.40;99.90;;;;;;5063757;28;37164;-50
2022/04/06 11:04:16;;;;;;;17.67;3.70;;;10.40;99.90;;;;;;5064148;28;38662;-54
2022/04/06 11:06:56;;;;;;;15.80;4.50;;;10.50;99.90;;;;;;5065057;28;38713;-49
2022/04/06 11:12:14;;;;;;;27.80;5.40;;;10.60;99.90;;;;;;5066044;28;38615;-50
2022/04/06 11:14:43;;;;;;;20.63;4.28;;;10.60;99.90;;;;;;5066390;28;38233;-46
2022/04/06 11:17:37;;;;;;;20.00;4.72;;;10.70;99.90;;;;;;5065920;28;37828;-55
2022/04/06 11:20:08;;;;;;;18.55;4.05;;;10.60;99.90;;;;;;5065079;28;39387;-51
2022/04/06 11:22:38;;;;;;;26.23;4.88;;;10.60;99.90;;;;;;5065967;28;35357;-51
2022/04/06 11:25:09;;;;;;;24.48;4.90;;;10.60;99.90;;;;;;5064917;28;37532;-50
2022/04/06 11:27:39;;;;;;;22.00;5.05;;;10.60;99.90;;;;;;5065596;28;37700;-50
2022/04/06 11:30:12;;;;;;;25.65;5.53;;;10.70;99.90;;;;;;5065012;28;37430;-50
2022/04/06 11:32:42;;;;;;;18.25;4.57;;;10.70;99.90;;;;;;5066665;28;37880;-50
2022/04/06 11:35:15;;;;;;;25.15;5.20;;;10.80;99.90;;;;;;5066089;28;38238;-50
2022/04/06 11:37:46;;;;;;;19.77;4.47;;;10.80;99.90;;;;;;5066193;28;38417;-55
2022/04/06 11:40:14;;;;;;;20.30;4.35;;;11.00;99.90;;;;;;5065345;28;38726;-57
2022/04/06 11:42:46;;;;;;;19.45;4.03;;;11.10;99.90;;;;;;5065752;28;37500;-54
2022/04/06 11:45:20;;;;;;;17.52;3.72;;;11.20;99.90;;;;;;5066178;28;36552;-54
2022/04/06 11:47:56;;;;;;;13.48;3.72;;;11.30;99.90;;;;;;5065715;28;39609;-48
2022/04/06 11:50:29;;;;;;;13.65;3.78;;;11.30;99.90;;;;;;5065881;28;37890;-50
2022/04/06 11:53:00;;;;;;;18.10;3.65;;;11.50;99.90;;;;;;5065705;28;35384;-51
2022/04/06 11:55:40;;;;;;;19.63;4.32;;;11.50;99.90;;;;;;5065416;28;37633;-51
2022/04/06 11:58:09;;;;;;;16.83;3.90;;;11.60;99.90;;;;;;5059646;28;37947;-50
2022/04/06 12:00:36;;;;;;;17.95;4.10;;;11.80;99.90;;;;;;5061684;28;37576;-51
2022/04/06 12:03:03;;;;;;;15.60;3.53;;;11.90;99.90;;;;;;5061679;28;35498;-51
2022/04/06 12:05:36;;;;;;;17.38;3.88;;;12.00;99.90;;;;;;5062645;28;37801;-51
2022/04/06 12:08:12;;;;;;;20.33;3.10;;;12.10;99.90;;;;;;5064141;28;38064;-50
2022/04/06 12:10:49;;;;;;;11.65;3.25;;;12.10;99.90;;;;;;5063992;28;37685;-51
2022/04/06 12:13:19;;;;;;;11.50;3.10;;;12.10;99.90;;;;;;5064375;28;35531;-52
2022/04/06 12:15:48;;;;;;;13.23;2.58;;;12.10;99.90;;;;;;5064416;28;36306;-50
2022/04/06 12:18:18;;;;;;;12.13;2.80;;;12.00;99.90;;;;;;5064290;28;36590;-49
2022/04/06 12:20:46;;;;;;;11.20;2.72;;;12.00;99.90;;;;;;5063988;28;37241;-48
2022/04/06 12:23:16;;;;;;;15.38;3.00;;;12.00;99.90;;;;;;5064641;28;37874;-51
2022/04/06 12:25:43;;;;;;;14.30;2.72;;;12.00;99.90;;;;;;5064573;28;38520;-49
2022/04/06 12:28:18;;;;;;;15.35;3.67;;;11.90;99.90;;;;;;5064359;28;39114;-48
2022/04/06 12:30:58;;;;;;;15.63;3.47;;;11.90;99.90;;;;;;5063178;28;38650;-49
2022/04/06 12:33:37;;;;;;;15.93;3.42;;;12.00;99.90;;;;;;5062710;28;37285;-47
2022/04/06 12:36:16;;;;;;;13.02;2.60;;;12.10;99.90;;;;;;5063096;28;37874;-49
2022/04/06 12:38:58;;;;;;;14.52;3.15;;;12.30;99.90;;;;;;5064906;28;37976;-50
2022/04/06 12:41:26;;;;;;;19.25;3.50;;;12.40;99.90;;;;;;5064490;28;37127;-51
2022/04/06 12:43:54;;;;;;;16.52;3.13;;;12.40;99.90;;;;;;5064154;28;37117;-51
2022/04/06 12:46:45;;;;;;;20.73;3.92;;;12.30;99.90;;;;;;5063610;28;38448;-51
2022/04/06 12:49:27;;;;;;;16.20;2.90;;;12.30;99.90;;;;;;5064670;28;38192;-49
2022/04/06 12:52:14;;;;;;;14.35;3.20;;;12.20;99.90;;;;;;5062644;28;36494;-50
2022/04/06 12:54:43;;;;;;;15.00;2.63;;;12.20;99.90;;;;;;5060628;28;36730;-49
2022/04/06 12:57:17;;;;;;;12.52;2.80;;;12.20;99.90;;;;;;5065340;28;38911;-51
2022/04/06 12:59:48;;;;;;;15.18;3.10;;;12.10;99.90;;;;;;5064053;28;38705;-49
2022/04/06 13:02:22;;;;;;;15.65;3.90;;;12.00;99.90;;;;;;5063279;28;38219;-54
2022/04/06 13:04:50;;;;;;;19.15;3.92;;;12.00;99.90;;;;;;5062772;28;36998;-55
2022/04/06 13:07:18;;;;;;;14.90;3.15;;;12.00;99.90;;;;;;5064446;28;37770;-54
2022/04/06 13:09:53;;;;;;;20.75;4.50;;;12.00;99.90;;;;;;5064399;28;37608;-55